sensor_id;sensor_type;location;lat;lon;timestamp;pressure;altitude;pressure_sealevel;temperature;humidity
32109;BME280;18624;50.042;8.436;2023-09-30T00:01:30;101266.19;;;17.42;100.00
32109;BME280;18624;50.042;8.436;2023-09-30T00:03:57;101298.78;;;17.60;100.00
32109;BME280;18624;50.042;8.436;2023-09-30T00:06:24;101317.16;;;17.66;100.00
32109;BME280;18624;50.042;8.436;2023-09-30T00:08:51;101318.94;;;17.60;100.00
32109;BME280;18624;50.042;8.436;2023-09-30T00:11:18;101320.78;;;17.54;100.00
32109;BME280;18624;50.042;8.436;2023-09-30T00:13:45;101293.84;;;17.33;100.00
32109;BME280;18624;50.042;8.436;2023-09-30T00:16:12;101319.19;;;17.44;100.00
32109;BME280;18624;50.042;8.436;2023-09-30T00:18:38;101339.09;;;17.52;100.00
32109;BME280;18624;50.042;8.436;2023-09-30T00:21:05;101304.28;;;17.29;100.00
32109;BME280;18624;50.042;8.436;2023-09-30T00:23:32;101334.00;;;17.50;100.00
32109;BME280;18624;50.042;8.436;2023-09-30T00:25:59;101329.97;;;17.51;100.00
32109;BME280;18624;50.042;8.436;2023-09-30T00:28:27;101287.38;;;17.27;100.00
32109;BME280;18624;50.042;8.436;2023-09-30T00:30:55;101338.31;;;17.51;100.00
32109;BME280;18624;50.042;8.436;2023-09-30T00:33:22;101329.28;;;17.38;100.00
32109;BME280;18624;50.042;8.436;2023-09-30T00:35:49;101348.44;;;17.45;100.00
32109;BME280;18624;50.042;8.436;2023-09-30T00:38:15;101313.78;;;17.18;100.00
32109;BME280;18624;50.042;8.436;2023-09-30T00:40:47;101302.06;;;17.14;100.00
32109;BME280;18624;50.042;8.436;2023-09-30T00:43:20;101329.56;;;17.31;100.00
32109;BME280;18624;50.042;8.436;2023-09-30T00:45:56;101350.75;;;17.46;100.00
32109;BME280;18624;50.042;8.436;2023-09-30T00:48:27;101328.34;;;17.32;100.00
32109;BME280;18624;50.042;8.436;2023-09-30T00:50:54;101342.25;;;17.41;100.00
32109;BME280;18624;50.042;8.436;2023-09-30T00:53:22;101347.03;;;17.40;100.00
32109;BME280;18624;50.042;8.436;2023-09-30T00:55:48;101313.41;;;17.07;100.00
32109;BME280;18624;50.042;8.436;2023-09-30T00:58:16;101354.22;;;17.38;100.00
32109;BME280;18624;50.042;8.436;2023-09-30T01:00:43;101354.69;;;17.36;100.00
32109;BME280;18624;50.042;8.436;2023-09-30T01:03:10;101348.38;;;17.36;100.00
32109;BME280;18624;50.042;8.436;2023-09-30T01:05:38;101353.16;;;17.35;100.00
32109;BME280;18624;50.042;8.436;2023-09-30T01:08:04;101362.34;;;17.32;100.00
32109;BME280;18624;50.042;8.436;2023-09-30T01:10:31;101362.06;;;17.30;100.00
32109;BME280;18624;50.042;8.436;2023-09-30T01:12:58;101346.25;;;17.18;100.00
32109;BME280;18624;50.042;8.436;2023-09-30T01:15:24;101359.97;;;17.21;100.00
32109;BME280;18624;50.042;8.436;2023-09-30T01:17:51;101349.78;;;17.18;100.00
32109;BME280;18624;50.042;8.436;2023-09-30T01:20:17;101361.91;;;17.12;100.00
32109;BME280;18624;50.042;8.436;2023-09-30T01:22:45;101335.75;;;16.91;100.00
32109;BME280;18624;50.042;8.436;2023-09-30T01:25:12;101373.78;;;17.12;100.00
32109;BME280;18624;50.042;8.436;2023-09-30T01:27:39;101346.34;;;16.92;100.00
32109;BME280;18624;50.042;8.436;2023-09-30T01:30:06;101371.78;;;17.13;100.00
32109;BME280;18624;50.042;8.436;2023-09-30T01:32:37;101380.66;;;17.08;100.00
32109;BME280;18624;50.042;8.436;2023-09-30T01:35:04;101368.28;;;17.00;100.00
32109;BME280;18624;50.042;8.436;2023-09-30T01:37:30;101366.41;;;16.96;100.00
32109;BME280;18624;50.042;8.436;2023-09-30T01:39:57;101331.38;;;16.68;100.00
32109;BME280;18624;50.042;8.436;2023-09-30T01:42:23;101373.81;;;17.00;100.00
32109;BME280;18624;50.042;8.436;2023-09-30T01:44:50;101293.03;;;16.44;100.00
32109;BME280;18624;50.042;8.436;2023-09-30T01:47:16;101364.09;;;16.95;100.00
32109;BME280;18624;50.042;8.436;2023-09-30T01:49:43;101353.50;;;16.81;100.00
32109;BME280;18624;50.042;8.436;2023-09-30T01:52:09;101353.94;;;16.79;100.00
32109;BME280;18624;50.042;8.436;2023-09-30T01:54:36;101351.97;;;16.80;100.00
32109;BME280;18624;50.042;8.436;2023-09-30T01:57:03;101365.75;;;16.92;100.00
32109;BME280;18624;50.042;8.436;2023-09-30T01:59:29;101353.47;;;16.93;100.00
32109;BME280;18624;50.042;8.436;2023-09-30T02:01:56;101354.22;;;16.94;100.00
32109;BME280;18624;50.042;8.436;2023-09-30T02:04:22;101353.91;;;16.92;100.00
32109;BME280;18624;50.042;8.436;2023-09-30T02:06:49;101352.34;;;16.91;100.00
32109;BME280;18624;50.042;8.436;2023-09-30T02:09:15;101372.97;;;16.90;100.00
32109;BME280;18624;50.042;8.436;2023-09-30T02:11:42;101364.66;;;16.90;100.00
32109;BME280;18624;50.042;8.436;2023-09-30T02:14:10;101294.38;;;16.40;100.00
32109;BME280;18624;50.042;8.436;2023-09-30T02:16:39;101370.31;;;16.86;100.00
32109;BME280;18624;50.042;8.436;2023-09-30T02:19:05;101357.50;;;16.67;100.00
32109;BME280;18624;50.042;8.436;2023-09-30T02:21:32;101371.88;;;16.75;100.00
32109;BME280;18624;50.042;8.436;2023-09-30T02:23:59;101380.84;;;16.66;100.00
32109;BME280;18624;50.042;8.436;2023-09-30T02:26:25;101373.56;;;16.59;100.00
32109;BME280;18624;50.042;8.436;2023-09-30T02:28:54;101378.66;;;16.61;100.00
32109;BME280;18624;50.042;8.436;2023-09-30T02:31:20;101379.75;;;16.63;100.00
32109;BME280;18624;50.042;8.436;2023-09-30T02:33:47;101391.28;;;16.62;100.00
32109;BME280;18624;50.042;8.436;2023-09-30T02:36:14;101389.19;;;16.53;100.00
32109;BME280;18624;50.042;8.436;2023-09-30T02:38:42;101366.06;;;16.34;100.00
32109;BME280;18624;50.042;8.436;2023-09-30T02:41:09;101383.66;;;16.40;100.00
32109;BME280;18624;50.042;8.436;2023-09-30T02:43:36;101370.72;;;16.25;100.00
32109;BME280;18624;50.042;8.436;2023-09-30T02:46:03;101384.56;;;16.37;100.00
32109;BME280;18624;50.042;8.436;2023-09-30T02:48:29;101397.81;;;16.30;100.00
32109;BME280;18624;50.042;8.436;2023-09-30T02:50:56;101405.25;;;16.33;100.00
32109;BME280;18624;50.042;8.436;2023-09-30T02:53:22;101408.00;;;16.33;100.00
32109;BME280;18624;50.042;8.436;2023-09-30T02:55:49;101412.13;;;16.41;100.00
32109;BME280;18624;50.042;8.436;2023-09-30T02:58:18;101403.69;;;16.44;100.00
32109;BME280;18624;50.042;8.436;2023-09-30T03:00:48;101382.34;;;16.32;100.00
32109;BME280;18624;50.042;8.436;2023-09-30T03:03:15;101415.75;;;16.51;100.00
32109;BME280;18624;50.042;8.436;2023-09-30T03:05:42;101386.88;;;16.39;100.00
32109;BME280;18624;50.042;8.436;2023-09-30T03:08:09;101407.78;;;16.53;100.00
32109;BME280;18624;50.042;8.436;2023-09-30T03:10:36;101338.44;;;16.09;100.00
32109;BME280;18624;50.042;8.436;2023-09-30T03:13:07;101405.66;;;16.57;100.00
32109;BME280;18624;50.042;8.436;2023-09-30T03:15:35;101389.19;;;16.53;100.00
32109;BME280;18624;50.042;8.436;2023-09-30T03:18:02;101352.47;;;16.27;100.00
32109;BME280;18624;50.042;8.436;2023-09-30T03:20:30;101382.91;;;16.40;100.00
32109;BME280;18624;50.042;8.436;2023-09-30T03:22:57;101408.56;;;16.40;100.00
32109;BME280;18624;50.042;8.436;2023-09-30T03:25:23;101411.75;;;16.39;100.00
32109;BME280;18624;50.042;8.436;2023-09-30T03:27:50;101389.78;;;16.23;100.00
32109;BME280;18624;50.042;8.436;2023-09-30T03:30:17;101411.25;;;16.31;100.00
32109;BME280;18624;50.042;8.436;2023-09-30T03:32:46;101406.47;;;16.19;100.00
32109;BME280;18624;50.042;8.436;2023-09-30T03:35:14;101433.03;;;16.29;100.00
32109;BME280;18624;50.042;8.436;2023-09-30T03:37:45;101432.25;;;16.29;100.00
32109;BME280;18624;50.042;8.436;2023-09-30T03:40:13;101423.53;;;16.30;100.00
32109;BME280;18624;50.042;8.436;2023-09-30T03:42:41;101413.66;;;16.29;100.00
32109;BME280;18624;50.042;8.436;2023-09-30T03:45:11;101415.34;;;16.27;100.00
32109;BME280;18624;50.042;8.436;2023-09-30T03:47:40;101435.13;;;16.25;100.00
32109;BME280;18624;50.042;8.436;2023-09-30T03:50:08;101447.41;;;16.24;100.00
32109;BME280;18624;50.042;8.436;2023-09-30T03:52:42;101440.00;;;16.21;100.00
32109;BME280;18624;50.042;8.436;2023-09-30T03:55:15;101448.94;;;16.25;100.00
32109;BME280;18624;50.042;8.436;2023-09-30T03:57:42;101444.19;;;16.13;100.00
32109;BME280;18624;50.042;8.436;2023-09-30T04:00:10;101435.13;;;16.12;100.00
32109;BME280;18624;50.042;8.436;2023-09-30T04:02:42;101429.38;;;16.19;100.00
32109;BME280;18624;50.042;8.436;2023-09-30T04:05:10;101429.16;;;16.14;100.00
32109;BME280;18624;50.042;8.436;2023-09-30T04:07:38;101435.13;;;16.12;100.00
32109;BME280;18624;50.042;8.436;2023-09-30T04:10:04;101433.25;;;16.09;100.00
32109;BME280;18624;50.042;8.436;2023-09-30T04:12:31;101440.66;;;16.12;100.00
32109;BME280;18624;50.042;8.436;2023-09-30T04:14:59;101437.56;;;16.10;100.00
32109;BME280;18624;50.042;8.436;2023-09-30T04:17:26;101408.53;;;15.89;100.00
32109;BME280;18624;50.042;8.436;2023-09-30T04:19:53;101389.88;;;15.81;100.00
32109;BME280;18624;50.042;8.436;2023-09-30T04:22:20;101361.78;;;15.53;100.00
32109;BME280;18624;50.042;8.436;2023-09-30T04:24:47;101440.00;;;16.08;100.00
32109;BME280;18624;50.042;8.436;2023-09-30T04:27:19;101439.22;;;16.08;100.00
32109;BME280;18624;50.042;8.436;2023-09-30T04:29:46;101446.41;;;16.05;100.00
32109;BME280;18624;50.042;8.436;2023-09-30T04:32:12;101445.19;;;16.06;100.00
32109;BME280;18624;50.042;8.436;2023-09-30T04:34:40;101461.78;;;16.19;100.00
32109;BME280;18624;50.042;8.436;2023-09-30T04:37:09;101452.72;;;16.18;100.00
32109;BME280;18624;50.042;8.436;2023-09-30T04:39:35;101445.19;;;16.19;100.00
32109;BME280;18624;50.042;8.436;2023-09-30T04:42:02;101433.91;;;16.13;100.00
32109;BME280;18624;50.042;8.436;2023-09-30T04:44:30;101440.00;;;16.21;100.00
32109;BME280;18624;50.042;8.436;2023-09-30T04:46:57;101440.00;;;16.21;100.00
32109;BME280;18624;50.042;8.436;2023-09-30T04:49:24;101443.56;;;16.22;100.00
32109;BME280;18624;50.042;8.436;2023-09-30T04:51:50;101444.31;;;16.22;100.00
32109;BME280;18624;50.042;8.436;2023-09-30T04:54:17;101446.72;;;16.20;100.00
32109;BME280;18624;50.042;8.436;2023-09-30T04:56:43;101391.41;;;15.82;100.00
32109;BME280;18624;50.042;8.436;2023-09-30T04:59:10;101436.91;;;16.19;100.00
32109;BME280;18624;50.042;8.436;2023-09-30T05:01:36;101364.88;;;15.72;100.00
32109;BME280;18624;50.042;8.436;2023-09-30T05:04:03;101440.78;;;16.22;100.00
32109;BME280;18624;50.042;8.436;2023-09-30T05:06:31;101448.31;;;16.21;100.00
32109;BME280;18624;50.042;8.436;2023-09-30T05:08:59;101454.63;;;16.22;100.00
32109;BME280;18624;50.042;8.436;2023-09-30T05:11:26;101438.78;;;16.09;100.00
32109;BME280;18624;50.042;8.436;2023-09-30T05:13:52;101456.72;;;16.17;100.00
32109;BME280;18624;50.042;8.436;2023-09-30T05:16:19;101457.25;;;16.12;100.00
32109;BME280;18624;50.042;8.436;2023-09-30T05:18:45;101424.03;;;15.87;100.00
32109;BME280;18624;50.042;8.436;2023-09-30T05:21:14;101456.25;;;16.06;100.00
32109;BME280;18624;50.042;8.436;2023-09-30T05:23:42;101456.69;;;16.05;100.00
32109;BME280;18624;50.042;8.436;2023-09-30T05:26:08;101446.50;;;16.02;100.00
32109;BME280;18624;50.042;8.436;2023-09-30T05:28:35;101440.28;;;15.98;100.00
32109;BME280;18624;50.042;8.436;2023-09-30T05:31:01;101445.94;;;15.94;100.00
32109;BME280;18624;50.042;8.436;2023-09-30T05:33:29;101401.66;;;15.68;100.00
32109;BME280;18624;50.042;8.436;2023-09-30T05:35:55;101414.59;;;15.72;100.00
32109;BME280;18624;50.042;8.436;2023-09-30T05:38:22;101417.78;;;15.70;100.00
32109;BME280;18624;50.042;8.436;2023-09-30T05:40:49;101455.22;;;15.87;100.00
32109;BME280;18624;50.042;8.436;2023-09-30T05:43:16;101442.13;;;15.75;100.00
32109;BME280;18624;50.042;8.436;2023-09-30T05:45:43;101388.38;;;15.34;100.00
32109;BME280;18624;50.042;8.436;2023-09-30T05:48:16;101377.94;;;15.26;100.00
32109;BME280;18624;50.042;8.436;2023-09-30T05:50:43;101469.34;;;15.77;100.00
32109;BME280;18624;50.042;8.436;2023-09-30T05:53:10;101463.22;;;15.69;100.00
32109;BME280;18624;50.042;8.436;2023-09-30T05:55:41;101421.19;;;15.32;100.00
32109;BME280;18624;50.042;8.436;2023-09-30T05:58:13;101424.38;;;15.31;100.00
32109;BME280;18624;50.042;8.436;2023-09-30T06:00:40;101460.16;;;15.51;100.00
32109;BME280;18624;50.042;8.436;2023-09-30T06:03:08;101467.13;;;15.55;100.00
32109;BME280;18624;50.042;8.436;2023-09-30T06:05:40;101440.75;;;15.38;100.00
32109;BME280;18624;50.042;8.436;2023-09-30T06:08:08;101465.38;;;15.32;100.00
32109;BME280;18624;50.042;8.436;2023-09-30T06:10:43;101480.66;;;15.37;100.00
32109;BME280;18624;50.042;8.436;2023-09-30T06:13:10;101435.31;;;15.05;100.00
32109;BME280;18624;50.042;8.436;2023-09-30T06:15:38;101490.94;;;15.36;100.00
32109;BME280;18624;50.042;8.436;2023-09-30T06:18:08;101480.16;;;15.26;100.00
32109;BME280;18624;50.042;8.436;2023-09-30T06:20:40;101498.19;;;15.30;100.00
32109;BME280;18624;50.042;8.436;2023-09-30T06:23:07;101504.91;;;15.29;100.00
32109;BME280;18624;50.042;8.436;2023-09-30T06:25:34;101508.44;;;15.30;100.00
32109;BME280;18624;50.042;8.436;2023-09-30T06:28:02;101516.22;;;15.35;100.00
32109;BME280;18624;50.042;8.436;2023-09-30T06:30:29;101483.78;;;15.23;100.00
32109;BME280;18624;50.042;8.436;2023-09-30T06:32:58;101476.28;;;15.23;100.00
32109;BME280;18624;50.042;8.436;2023-09-30T06:35:27;101508.69;;;15.35;100.00
32109;BME280;18624;50.042;8.436;2023-09-30T06:37:56;101512.25;;;15.36;100.00
32109;BME280;18624;50.042;8.436;2023-09-30T06:40:22;101512.25;;;15.36;100.00
32109;BME280;18624;50.042;8.436;2023-09-30T06:42:50;101437.31;;;14.88;100.00
32109;BME280;18624;50.042;8.436;2023-09-30T06:45:16;101469.63;;;15.20;100.00
32109;BME280;18624;50.042;8.436;2023-09-30T06:47:44;101491.25;;;15.38;100.00
32109;BME280;18624;50.042;8.436;2023-09-30T06:50:12;101498.53;;;15.32;100.00
32109;BME280;18624;50.042;8.436;2023-09-30T06:52:44;101499.47;;;15.26;100.00
32109;BME280;18624;50.042;8.436;2023-09-30T06:55:16;101511.03;;;15.37;100.00
32109;BME280;18624;50.042;8.436;2023-09-30T06:57:43;101512.16;;;15.39;100.00
32109;BME280;18624;50.042;8.436;2023-09-30T07:00:12;101488.09;;;15.07;100.00
32109;BME280;18624;50.042;8.436;2023-09-30T07:02:39;101520.47;;;15.23;100.00
32109;BME280;18624;50.042;8.436;2023-09-30T07:05:16;101522.34;;;15.26;100.00
32109;BME280;18624;50.042;8.436;2023-09-30T07:07:44;101539.28;;;15.28;100.00
32109;BME280;18624;50.042;8.436;2023-09-30T07:10:11;101540.91;;;15.42;100.00
32109;BME280;18624;50.042;8.436;2023-09-30T07:12:38;101511.41;;;15.23;100.00
32109;BME280;18624;50.042;8.436;2023-09-30T07:15:06;101547.44;;;15.48;100.00
32109;BME280;18624;50.042;8.436;2023-09-30T07:17:33;101487.31;;;15.23;100.00
32109;BME280;18624;50.042;8.436;2023-09-30T07:20:01;101524.91;;;15.66;100.00
32109;BME280;18624;50.042;8.436;2023-09-30T07:22:28;101486.56;;;15.52;100.00
32109;BME280;18624;50.042;8.436;2023-09-30T07:25:12;101530.47;;;15.79;100.00
32109;BME280;18624;50.042;8.436;2023-09-30T07:27:41;101503.28;;;15.61;100.00
32109;BME280;18624;50.042;8.436;2023-09-30T07:30:07;101543.03;;;15.96;100.00
32109;BME280;18624;50.042;8.436;2023-09-30T07:32:34;101544.50;;;16.01;100.00
32109;BME280;18624;50.042;8.436;2023-09-30T07:35:01;101531.81;;;16.03;100.00
32109;BME280;18624;50.042;8.436;2023-09-30T07:37:27;101506.22;;;15.99;100.00
32109;BME280;18624;50.042;8.436;2023-09-30T07:39:55;101549.88;;;16.33;99.48
32109;BME280;18624;50.042;8.436;2023-09-30T07:42:22;101503.88;;;15.98;95.16
32109;BME280;18624;50.042;8.436;2023-09-30T07:44:52;101524.75;;;16.28;95.11
32109;BME280;18624;50.042;8.436;2023-09-30T07:47:20;101531.63;;;16.36;94.28
32109;BME280;18624;50.042;8.436;2023-09-30T07:49:47;101529.75;;;16.45;94.02
32109;BME280;18624;50.042;8.436;2023-09-30T07:52:13;101526.00;;;16.52;95.09
32109;BME280;18624;50.042;8.436;2023-09-30T07:54:40;101511.16;;;16.46;98.25
32109;BME280;18624;50.042;8.436;2023-09-30T07:57:06;101495.44;;;16.43;96.97
32109;BME280;18624;50.042;8.436;2023-09-30T07:59:33;101544.31;;;16.75;93.72
32109;BME280;18624;50.042;8.436;2023-09-30T08:02:01;101523.91;;;16.69;94.48
32109;BME280;18624;50.042;8.436;2023-09-30T08:04:30;101535.13;;;16.78;96.32
32109;BME280;18624;50.042;8.436;2023-09-30T08:06:57;101491.91;;;16.55;95.33
32109;BME280;18624;50.042;8.436;2023-09-30T08:09:24;101497.25;;;16.62;95.07
32109;BME280;18624;50.042;8.436;2023-09-30T08:11:53;101476.84;;;16.56;92.01
32109;BME280;18624;50.042;8.436;2023-09-30T08:14:20;101499.56;;;16.77;92.38
32109;BME280;18624;50.042;8.436;2023-09-30T08:16:46;101529.31;;;17.11;91.67
32109;BME280;18624;50.042;8.436;2023-09-30T08:19:15;101526.34;;;17.05;90.56
32109;BME280;18624;50.042;8.436;2023-09-30T08:21:42;101550.00;;;17.32;90.98
32109;BME280;18624;50.042;8.436;2023-09-30T08:24:08;101538.63;;;17.30;90.72
32109;BME280;18624;50.042;8.436;2023-09-30T08:26:35;101544.25;;;17.39;87.33
32109;BME280;18624;50.042;8.436;2023-09-30T08:29:02;101554.63;;;17.48;85.72
32109;BME280;18624;50.042;8.436;2023-09-30T08:31:30;101524.50;;;17.37;86.66
32109;BME280;18624;50.042;8.436;2023-09-30T08:33:56;101534.44;;;17.47;88.14
32109;BME280;18624;50.042;8.436;2023-09-30T08:36:24;101535.59;;;17.37;88.31
32109;BME280;18624;50.042;8.436;2023-09-30T08:38:51;101571.44;;;17.66;85.51
32109;BME280;18624;50.042;8.436;2023-09-30T08:41:29;101581.50;;;17.72;83.37
32109;BME280;18624;50.042;8.436;2023-09-30T08:43:59;101569.19;;;17.74;77.61
32109;BME280;18624;50.042;8.436;2023-09-30T08:46:31;101560.53;;;17.71;78.10
32109;BME280;18624;50.042;8.436;2023-09-30T08:49:00;101572.50;;;17.81;80.92
32109;BME280;18624;50.042;8.436;2023-09-30T08:51:28;101586.78;;;17.92;83.61
32109;BME280;18624;50.042;8.436;2023-09-30T08:53:56;101569.75;;;18.03;83.58
32109;BME280;18624;50.042;8.436;2023-09-30T08:56:27;101549.16;;;17.91;81.62
32109;BME280;18624;50.042;8.436;2023-09-30T08:58:58;101578.66;;;18.20;81.01
32109;BME280;18624;50.042;8.436;2023-09-30T09:01:30;101573.94;;;18.30;79.65
32109;BME280;18624;50.042;8.436;2023-09-30T09:03:57;101578.91;;;18.35;77.70
32109;BME280;18624;50.042;8.436;2023-09-30T09:06:25;101540.19;;;18.09;75.57
32109;BME280;18624;50.042;8.436;2023-09-30T09:09:13;101566.50;;;18.27;76.33
32109;BME280;18624;50.042;8.436;2023-09-30T09:11:41;101578.19;;;18.43;76.12
32109;BME280;18624;50.042;8.436;2023-09-30T09:14:07;101570.75;;;18.40;75.78
32109;BME280;18624;50.042;8.436;2023-09-30T09:16:35;101578.38;;;18.49;75.40
32109;BME280;18624;50.042;8.436;2023-09-30T09:19:13;101588.69;;;18.48;75.19
32109;BME280;18624;50.042;8.436;2023-09-30T09:21:53;101553.75;;;18.29;74.62
32109;BME280;18624;50.042;8.436;2023-09-30T09:24:31;101585.09;;;18.39;73.47
32109;BME280;18624;50.042;8.436;2023-09-30T09:29:31;101591.13;;;18.37;70.42
32109;BME280;18624;50.042;8.436;2023-09-30T09:32:13;101583.16;;;18.27;72.77
32109;BME280;18624;50.042;8.436;2023-09-30T09:34:41;101591.81;;;18.29;72.61
32109;BME280;18624;50.042;8.436;2023-09-30T09:37:20;101584.66;;;18.18;71.74
32109;BME280;18624;50.042;8.436;2023-09-30T09:39:49;101582.03;;;18.15;72.03
32109;BME280;18624;50.042;8.436;2023-09-30T09:42:32;101562.31;;;18.00;69.86
32109;BME280;18624;50.042;8.436;2023-09-30T09:45:04;101568.53;;;18.04;71.12
32109;BME280;18624;50.042;8.436;2023-09-30T09:47:32;101578.25;;;18.09;73.59
32109;BME280;18624;50.042;8.436;2023-09-30T09:49:59;101586.06;;;18.23;73.78
32109;BME280;18624;50.042;8.436;2023-09-30T09:52:27;101578.66;;;18.20;71.34
32109;BME280;18624;50.042;8.436;2023-09-30T09:54:54;101556.06;;;18.09;72.97
32109;BME280;18624;50.042;8.436;2023-09-30T09:57:22;101572.53;;;18.25;73.09
32109;BME280;18624;50.042;8.436;2023-09-30T09:59:52;101571.16;;;18.30;74.08
32109;BME280;18624;50.042;8.436;2023-09-30T10:02:22;101545.81;;;18.18;74.38
32109;BME280;18624;50.042;8.436;2023-09-30T10:04:49;101559.28;;;18.29;72.77
32109;BME280;18624;50.042;8.436;2023-09-30T10:07:28;101546.72;;;18.15;73.20
32109;BME280;18624;50.042;8.436;2023-09-30T10:09:58;101516.88;;;17.98;69.44
32109;BME280;18624;50.042;8.436;2023-09-30T10:12:27;101522.59;;;18.03;70.77
32109;BME280;18624;50.042;8.436;2023-09-30T10:14:54;101536.41;;;18.16;69.16
32109;BME280;18624;50.042;8.436;2023-09-30T10:20:33;101536.06;;;18.14;68.73
32109;BME280;18624;50.042;8.436;2023-09-30T10:28:43;101532.50;;;18.13;69.39
32109;BME280;18624;50.042;8.436;2023-09-30T10:31:21;101535.81;;;18.21;66.76
32109;BME280;18624;50.042;8.436;2023-09-30T10:36:28;101515.03;;;18.04;68.77
32109;BME280;18624;50.042;8.436;2023-09-30T10:38:55;101511.03;;;18.05;69.12
32109;BME280;18624;50.042;8.436;2023-09-30T10:46:49;101519.03;;;18.25;67.01
32109;BME280;18624;50.042;8.436;2023-09-30T10:51:53;101514.13;;;18.29;65.43
32109;BME280;18624;50.042;8.436;2023-09-30T10:54:24;101492.00;;;18.16;64.75
32109;BME280;18624;50.042;8.436;2023-09-30T10:56:52;101529.75;;;18.44;63.96
32109;BME280;18624;50.042;8.436;2023-09-30T10:59:22;101495.09;;;18.18;64.22
32109;BME280;18624;50.042;8.436;2023-09-30T11:01:50;101529.16;;;18.50;64.96
32109;BME280;18624;50.042;8.436;2023-09-30T11:04:17;101447.78;;;17.90;63.79
32109;BME280;18624;50.042;8.436;2023-09-30T11:06:46;101449.38;;;18.01;63.17
32109;BME280;18624;50.042;8.436;2023-09-30T11:09:16;101521.31;;;18.48;61.70
32109;BME280;18624;50.042;8.436;2023-09-30T11:14:20;101490.25;;;18.09;63.19
32109;BME280;18624;50.042;8.436;2023-09-30T11:16:48;101444.47;;;17.83;65.97
32109;BME280;18624;50.042;8.436;2023-09-30T11:19:15;101512.03;;;18.42;66.61
32109;BME280;18624;50.042;8.436;2023-09-30T11:21:42;101526.53;;;18.46;66.08
32109;BME280;18624;50.042;8.436;2023-09-30T11:24:13;101525.91;;;18.42;66.73
32109;BME280;18624;50.042;8.436;2023-09-30T11:26:40;101470.25;;;18.14;66.66
32109;BME280;18624;50.042;8.436;2023-09-30T11:29:15;101524.84;;;18.48;65.44
32109;BME280;18624;50.042;8.436;2023-09-30T11:31:44;101472.13;;;18.17;65.91
32109;BME280;18624;50.042;8.436;2023-09-30T11:34:11;101532.13;;;18.55;63.69
32109;BME280;18624;50.042;8.436;2023-09-30T11:36:49;101503.06;;;18.38;62.26
32109;BME280;18624;50.042;8.436;2023-09-30T11:39:24;101494.28;;;18.39;60.40
32109;BME280;18624;50.042;8.436;2023-09-30T11:41:51;101526.91;;;18.57;62.12
32109;BME280;18624;50.042;8.436;2023-09-30T11:44:18;101477.41;;;18.25;61.10
32109;BME280;18624;50.042;8.436;2023-09-30T11:46:58;101510.66;;;18.46;62.01
32109;BME280;18624;50.042;8.436;2023-09-30T11:51:59;101529.19;;;18.59;64.21
32109;BME280;18624;50.042;8.436;2023-09-30T11:54:34;101524.28;;;18.63;63.56
32109;BME280;18624;50.042;8.436;2023-09-30T11:57:03;101526.16;;;18.66;60.66
32109;BME280;18624;50.042;8.436;2023-09-30T11:59:30;101508.22;;;18.58;62.06
32109;BME280;18624;50.042;8.436;2023-09-30T12:01:57;101498.19;;;18.51;62.65
32109;BME280;18624;50.042;8.436;2023-09-30T12:04:40;101510.94;;;18.70;63.40
32109;BME280;18624;50.042;8.436;2023-09-30T12:07:07;101520.06;;;18.80;59.69
32109;BME280;18624;50.042;8.436;2023-09-30T12:09:34;101520.06;;;18.80;59.44
32109;BME280;18624;50.042;8.436;2023-09-30T12:12:04;101507.72;;;18.81;58.21
32109;BME280;18624;50.042;8.436;2023-09-30T12:14:30;101512.38;;;18.84;60.33
32109;BME280;18624;50.042;8.436;2023-09-30T12:16:57;101476.66;;;18.64;60.31
32109;BME280;18624;50.042;8.436;2023-09-30T12:19:24;101477.41;;;18.65;58.69
32109;BME280;18624;50.042;8.436;2023-09-30T12:21:52;101442.31;;;18.40;58.82
32109;BME280;18624;50.042;8.436;2023-09-30T12:24:19;101477.00;;;18.76;59.34
32109;BME280;18624;50.042;8.436;2023-09-30T12:26:49;101499.25;;;18.85;57.50
32109;BME280;18624;50.042;8.436;2023-09-30T12:29:16;101490.91;;;18.85;59.47
32109;BME280;18624;50.042;8.436;2023-09-30T12:31:50;101474.69;;;18.74;58.79
32109;BME280;18624;50.042;8.436;2023-09-30T12:34:19;101449.66;;;18.65;58.62
32109;BME280;18624;50.042;8.436;2023-09-30T12:36:46;101429.25;;;18.59;58.66
32109;BME280;18624;50.042;8.436;2023-09-30T12:39:14;101485.53;;;19.00;58.90
32109;BME280;18624;50.042;8.436;2023-09-30T12:41:43;101481.53;;;19.01;58.84
32109;BME280;18624;50.042;8.436;2023-09-30T12:44:12;101393.72;;;18.35;58.23
32109;BME280;18624;50.042;8.436;2023-09-30T12:46:39;101473.50;;;18.93;58.53
32109;BME280;18624;50.042;8.436;2023-09-30T12:49:07;101476.28;;;18.93;59.03
32109;BME280;18624;50.042;8.436;2023-09-30T12:51:35;101473.78;;;18.95;60.34
32109;BME280;18624;50.042;8.436;2023-09-30T12:54:03;101473.22;;;19.01;59.89
32109;BME280;18624;50.042;8.436;2023-09-30T12:56:30;101451.75;;;18.92;59.77
32109;BME280;18624;50.042;8.436;2023-09-30T12:58:57;101473.53;;;19.12;60.57
32109;BME280;18624;50.042;8.436;2023-09-30T13:01:24;101461.00;;;18.98;59.30
32109;BME280;18624;50.042;8.436;2023-09-30T13:03:50;101482.47;;;18.97;59.01
32109;BME280;18624;50.042;8.436;2023-09-30T13:06:18;101460.97;;;18.80;58.96
32109;BME280;18624;50.042;8.436;2023-09-30T13:08:45;101476.56;;;18.95;59.01
32109;BME280;18624;50.042;8.436;2023-09-30T13:11:13;101470.09;;;18.98;58.34
32109;BME280;18624;50.042;8.436;2023-09-30T13:13:40;101422.19;;;18.67;58.25
32109;BME280;18624;50.042;8.436;2023-09-30T13:16:10;101384.94;;;18.46;58.07